Terminal Aerodrome Forecast
Issued by NWS

Home | Current Version | Previous Version | Text Only | Print | Product List | Glossary On
Versions: 1 2 3 4 5 6 7 8 9 10 11 12 13 14
000
FTUS43 KTOP 191137
TAFMHK
TAF
KMHK 191137Z 1912/2012 00000KT 2SM BR SCT250
      TEMPO 1912/1916 1/2SM FG VV003
     FM191700 18009KT 4SM BR BKN013
     FM191900 18013KT P6SM SCT025
     FM200200 17010KT 4SM BR OVC011
     FM200600 18009KT 3SM BR OVC008=

USA.gov is the U.S. government's official web portal to all federal, state and local government web resources and services.